Date,TemperatureHighF,TemperatureAvgF,TemperatureLowF,DewpointHighF,DewpointAvgF,DewpointLowF,HumidityHigh,HumidityAvg,HumidityLow,PressureMaxIn,PressureMinIn,WindSpeedMaxMPH,WindSpeedAvgMPH,GustSpeedMaxMPH,PrecipitationSumIn
2013-1-1,47,36,29,38,32,29,100,86,58,0.00,40.00,18,8,25,0.05
2013-1-2,52,38,33,35,31,28,100,77,44,0.00,40.00,18,10,24,0.00
2013-1-3,48,39,31,38,32,27,98,78,54,0.00,40.00,15,11,27,0.00
2013-1-4,52,44,41,41,38,35,89,77,64,0.00,40.00,10,5,16,0.00
2013-1-5,45,41,38,41,37,32,100,85,66,0.00,40.00,16,7,19,0.02
2013-1-6,48,40,35,42,37,35,100,89,71,0.00,40.00,17,7,25,0.02
2013-1-7,46,42,38,46,42,37,100,99,85,0.00,40.00,20,11,27,0.16
2013-1-8,53,47,42,45,43,40,100,88,69,0.00,40.00,18,13,28,0.01
2013-1-9,49,39,31,41,36,31,100,91,72,0.00,40.00,19,8,32,0.21
2013-1-10,33,32,30,33,32,30,100,100,100,0.00,40.00,11,4,21,0.01
2013-1-11,38,32,29,38,31,28,100,96,76,0.00,40.00,9,4,15,0.24
2013-1-12,37,29,25,29,26,24,100,91,61,0.00,40.00,10,6,15,0.05
2013-1-13,31,26,24,27,25,22,100,95,81,0.00,40.00,8,3,12,0.01
2013-1-14,37,28,21,33,26,21,100,92,68,0.00,40.00,5,2,8,0.05
2013-1-15,40,32,28,34,30,27,100,93,71,0.00,40.00,15,5,20,0.04
2013-1-16,48,33,27,38,32,27,100,96,60,0.00,40.00,15,8,23,0.01
2013-1-17,56,38,31,39,32,29,100,82,39,0.00,40.00,19,11,26,0.01
2013-1-18,61,44,36,36,31,26,77,62,32,0.00,40.00,16,11,27,0.00
2013-1-19,60,46,40,35,29,19,69,54,24,0.00,40.00,15,9,21,0.00
2013-1-20,59,44,37,37,29,23,68,56,40,0.00,40.00,16,9,21,0.00
2013-1-21,59,46,34,33,26,21,60,47,30,0.00,40.00,19,9,25,0.00
2013-1-22,53,46,38,35,27,21,60,47,31,0.00,40.00,15,9,23,0.00
2013-1-23,50,41,36,40,36,27,100,84,41,0.00,40.00,13,4,16,0.55
2013-1-24,52,44,38,51,43,38,100,96,84,0.00,40.00,12,7,18,0.11
2013-1-25,49,46,42,49,46,39,100,99,88,0.00,40.00,16,9,26,1.10
2013-1-26,42,37,34,40,37,34,100,98,92,0.00,40.00,10,5,17,0.43
2013-1-27,38,35,33,38,35,33,100,100,99,0.00,40.00,9,5,19,0.20
2013-1-28,39,35,33,39,35,33,100,100,100,0.00,40.00,9,4,17,0.59
2013-1-29,43,39,37,43,39,37,100,100,100,0.00,40.00,7,4,22,0.17
2013-1-30,45,40,36,45,40,36,100,100,100,0.00,40.00,12,5,16,0.01
2013-1-31,42,39,35,42,39,35,100,100,100,0.00,40.00,6,3,12,0.01
2013-2-1,49,41,34,45,40,34,100,97,83,0.00,40.00,11,6,16,0.00
2013-2-2,54,43,33,46,39,33,100,89,70,0.00,40.00,16,8,20,0.01
2013-2-3,43,39,35,43,38,35,100,99,93,0.00,40.00,10,4,17,0.00
2013-2-4,53,42,34,43,39,34,100,90,57,0.00,40.00,12,6,21,0.00
2013-2-5,50,41,38,44,40,36,100,95,74,0.00,40.00,12,8,25,0.17
2013-2-6,49,42,37,41,36,30,100,81,60,0.00,40.00,21,12,35,0.02
2013-2-7,42,35,32,41,34,32,100,95,71,0.00,40.00,19,7,35,0.25
2013-2-8,40,34,32,36,32,29,100,95,76,0.00,40.00,14,7,24,0.02
2013-2-9,43,36,32,37,35,32,100,95,78,0.00,40.00,8,4,13,0.01
2013-2-10,42,37,35,40,36,34,100,96,84,0.00,40.00,12,5,18,0.00
2013-2-11,44,38,33,39,35,32,100,90,65,0.00,40.00,6,4,13,0.00
2013-2-12,50,41,37,46,40,37,100,95,80,0.00,40.00,10,5,14,0.07
2013-2-13,49,44,40,45,41,38,97,92,80,0.00,40.00,8,3,10,0.00
2013-2-14,52,45,39,46,42,38,98,92,76,0.00,40.00,13,5,20,0.00
2013-2-15,59,47,38,48,42,37,98,85,62,0.00,40.00,9,3,13,0.00
2013-2-16,49,42,37,43,39,35,98,89,68,0.00,40.00,12,6,14,0.00
2013-2-17,46,39,33,39,34,30,99,86,63,0.00,40.00,10,6,19,0.00
2013-2-18,42,36,32,37,32,30,98,85,62,0.00,40.00,12,6,16,0.00
2013-2-19,43,37,32,38,34,29,99,90,66,0.00,40.00,19,8,29,0.10
2013-2-20,43,38,34,38,34,31,98,87,62,0.00,40.00,7,5,14,0.06
2013-2-21,41,37,34,37,35,34,98,95,80,0.00,40.00,9,5,15,0.15
2013-2-22,47,39,35,40,36,32,98,90,69,0.00,40.00,16,12,28,0.30
2013-2-23,39,34,32,37,33,30,98,95,87,0.00,40.00,11,5,30,0.18
2013-2-24,49,38,30,38,34,29,99,85,60,0.00,40.00,12,7,16,0.03
2013-2-25,44,38,34,38,34,31,97,86,65,0.00,40.00,15,8,29,0.13
2013-2-26,47,38,32,35,32,30,99,82,54,0.00,40.00,14,7,23,0.01
2013-2-27,53,44,37,43,36,31,88,75,52,0.00,40.00,20,10,27,0.01
2013-2-28,51,49,45,50,46,40,97,91,79,0.00,40.00,19,11,27,0.10
2013-3-1,63,51,44,50,46,42,96,82,49,0.00,40.00,13,6,19,0.02
2013-3-2,52,46,43,49,45,42,97,95,83,0.00,40.00,9,5,14,0.03
2013-3-3,48,40,34,43,35,29,99,83,55,0.00,40.00,18,10,27,0.08
2013-3-4,60,43,32,41,35,30,96,75,47,0.00,40.00,14,7,21,0.02
2013-3-5,44,41,36,41,36,24,97,83,54,0.00,40.00,15,6,21,0.35
2013-3-6,44,39,34,41,36,32,99,90,75,0.00,40.00,20,10,32,0.88
2013-3-7,51,40,35,38,34,29,94,79,51,0.00,40.00,18,7,26,0.12
2013-3-8,42,36,32,38,35,32,99,95,82,0.00,40.00,8,3,19,0.11
2013-3-9,56,44,33,41,35,30,98,73,44,0.00,40.00,12,6,23,0.00
2013-3-10,60,49,35,44,36,31,86,64,34,0.00,40.00,14,7,17,0.00
2013-3-11,61,51,44,48,45,41,96,80,56,0.00,40.00,13,6,19,0.00
2013-3-12,59,50,43,50,45,41,94,85,67,0.00,40.00,11,7,17,0.00
2013-3-13,69,54,46,50,46,43,96,77,41,0.00,40.00,11,6,17,0.00
2013-3-14,57,52,47,50,44,39,88,76,62,0.00,40.00,14,7,21,0.00
2013-3-15,64,53,47,49,44,41,93,75,51,0.00,40.00,14,5,19,0.00
2013-3-16,47,44,40,46,42,38,96,93,83,0.00,40.00,14,6,33,0.34
2013-3-17,47,39,33,38,33,28,99,82,57,0.00,40.00,14,6,25,0.26
2013-3-18,54,41,32,40,34,31,97,79,55,0.00,40.00,12,6,18,0.00
2013-3-19,54,47,40,48,40,35,93,79,57,0.00,40.00,23,11,33,0.15
2013-3-20,52,44,34,47,41,33,98,88,78,0.00,40.00,23,14,41,0.32
2013-3-21,41,36,32,37,34,29,99,92,77,0.00,40.00,15,6,25,0.11
2013-3-22,45,36,32,33,32,30,98,86,58,0.00,40.00,11,6,16,0.02
2013-3-23,49,38,31,34,32,28,99,80,51,0.00,40.00,12,6,17,0.01
2013-3-24,54,43,33,39,35,30,93,75,56,0.00,40.00,13,6,20,0.00
2013-3-25,52,45,39,44,40,36,96,84,70,0.00,40.00,10,5,22,0.01
2013-3-26,54,45,39,45,40,38,98,86,67,0.00,40.00,7,4,9,0.05
2013-3-27,58,48,43,50,43,39,95,83,59,0.00,40.00,11,6,21,0.07
2013-3-28,58,52,48,52,48,45,95,86,75,0.00,40.00,10,6,19,0.25
2013-3-29,66,54,46,54,47,44,97,80,49,0.00,40.00,11,5,16,0.02
2013-3-30,71,58,47,55,48,-100,94,76,52,0.00,40.00,14,6,22,0.01
2013-3-31,62,54,48,51,48,44,97,81,65,0.00,40.00,10,5,18,0.15
2013-4-1,54,50,48,50,48,47,97,95,81,0.00,40.00,9,4,12,0.54
2013-4-2,65,55,47,53,46,40,97,76,41,0.00,40.00,7,4,12,0.11
2013-4-3,67,55,46,52,48,44,94,77,55,0.00,40.00,10,5,15,0.00
2013-4-4,58,53,47,53,50,45,97,89,77,0.00,40.00,16,9,33,0.17
2013-4-5,55,49,46,48,44,41,96,83,63,0.00,40.00,20,12,30,0.19
2013-4-6,52,47,44,48,44,39,97,89,68,0.00,40.00,22,11,33,0.34
2013-4-7,49,42,34,44,39,34,98,88,77,0.00,40.00,23,12,35,0.40
2013-4-8,47,41,35,42,38,34,98,92,64,0.00,40.00,10,6,20,0.28
2013-4-9,60,48,39,46,39,33,98,75,39,0.00,40.00,8,5,12,0.02
2013-4-10,56,48,44,49,44,40,95,84,70,0.00,40.00,12,8,21,0.04
2013-4-11,54,45,37,43,38,34,97,77,54,0.00,40.00,16,10,25,0.01
2013-4-12,59,46,36,43,37,33,97,73,48,0.00,40.00,13,6,16,0.00
2013-4-13,47,40,35,42,34,29,97,80,60,0.00,40.00,15,9,22,0.00
2013-4-14,47,38,33,36,33,28,98,84,54,0.00,40.00,11,6,25,0.08
2013-4-15,43,37,34,41,36,33,98,95,80,0.00,40.00,10,7,20,0.24
2013-4-16,51,41,35,43,37,34,98,89,67,0.00,40.00,12,7,30,0.08
2013-4-17,54,44,37,41,37,32,98,79,43,0.00,40.00,13,6,21,0.03
2013-4-18,60,48,41,45,41,38,95,79,50,0.00,40.00,14,7,19,0.00
2013-4-19,53,47,43,50,45,41,97,91,82,0.00,40.00,12,6,19,0.15
2013-4-20,60,50,42,49,43,40,97,82,48,0.00,40.00,15,6,21,0.01
2013-4-21,59,49,41,47,44,40,97,85,58,0.00,40.00,14,6,19,0.00
2013-4-22,63,50,41,48,42,33,97,77,44,0.00,40.00,18,13,30,0.00
2013-4-23,65,54,42,39,30,16,66,44,18,0.00,40.00,18,8,29,0.00
2013-4-24,72,61,50,40,33,21,44,35,27,0.00,40.00,19,10,25,0.00
2013-4-25,74,62,48,45,39,34,62,44,32,0.00,40.00,12,7,24,0.00
2013-4-26,78,64,52,50,41,35,61,45,23,0.00,40.00,12,6,19,0.00
2013-4-27,74,62,50,46,38,26,61,42,24,0.00,40.00,13,6,21,0.00
2013-4-28,63,52,40,47,39,29,90,62,42,0.00,40.00,11,6,17,0.00
2013-4-29,57,51,46,47,43,36,94,74,45,0.00,40.00,12,6,21,0.00
2013-4-30,54,46,33,34,29,25,92,52,35,0.00,40.00,16,12,26,0.00
2013-5-1,65,50,35,42,36,29,91,61,36,0.00,40.00,16,9,24,0.00
2013-5-2,75,61,47,42,36,25,69,42,20,0.00,40.00,16,8,26,0.00
2013-5-3,71,60,49,46,40,32,65,48,29,0.00,40.00,21,10,30,0.00
2013-5-4,80,66,53,48,38,22,68,40,13,0.00,40.00,15,8,33,0.00
2013-5-5,80,69,56,55,39,30,83,38,22,0.00,40.00,23,11,60,0.05
2013-5-6,72,60,49,50,46,43,81,62,44,0.00,40.00,19,8,25,0.05
2013-5-7,70,59,48,48,46,43,89,66,41,0.00,40.00,14,8,22,0.00
2013-5-8,71,56,45,53,47,44,97,75,43,0.00,40.00,16,9,23,0.00
2013-5-9,76,62,50,56,49,43,88,64,40,0.00,40.00,14,7,23,0.00
2013-5-10,79,65,58,57,49,-100,79,61,43,0.00,40.00,16,7,23,0.00
2013-5-11,82,67,55,61,52,-100,81,61,41,0.00,40.00,14,6,19,0.00
2013-5-12,75,64,57,60,54,48,88,71,50,0.00,40.00,16,8,24,0.00
2013-5-13,66,56,48,56,49,42,97,80,53,0.00,40.00,16,8,28,0.00
2013-5-14,65,52,44,48,43,36,97,75,38,0.00,40.00,14,8,20,0.00
2013-5-15,60,52,45,46,40,32,75,64,54,0.00,40.00,12,5,19,0.01
2013-5-16,61,46,46,52,30,-100,97,85,71,0.00,40.00,11,5,20,0.14
2013-5-17,59,50,45,49,41,-100,95,81,55,0.00,40.00,11,5,19,0.05
2013-5-18,54,50,46,49,46,42,96,85,70,0.00,40.00,12,5,17,0.01
2013-5-19,61,52,46,52,46,41,97,81,55,0.00,40.00,14,7,24,0.14
2013-5-20,72,56,46,50,44,35,88,66,38,0.00,40.00,16,7,25,0.02
2013-5-21,53,44,37,46,39,34,97,83,53,0.00,40.00,17,9,36,0.30
2013-5-22,44,40,35,42,38,34,98,93,86,0.00,40.00,12,8,20,0.31
2013-5-23,54,46,38,43,40,37,97,82,61,0.00,40.00,8,5,14,0.02
2013-5-24,55,48,41,44,41,37,96,79,50,0.00,40.00,14,6,22,0.11
2013-5-25,68,52,42,46,43,39,93,73,37,0.00,40.00,14,6,19,0.01
2013-5-26,61,53,48,51,48,45,97,83,58,0.00,40.00,11,6,22,0.20
2013-5-27,58,52,47,54,49,45,97,89,81,0.00,40.00,23,13,31,0.43
2013-5-28,63,54,48,51,48,45,97,80,59,0.00,40.00,12,6,19,0.03
2013-5-29,60,51,45,53,47,41,96,85,71,0.00,40.00,16,9,29,0.21
2013-5-30,56,49,44,46,43,40,96,79,60,0.00,40.00,13,6,17,0.03
2013-5-31,68,55,43,51,44,41,96,71,40,0.00,40.00,14,7,21,0.03
2013-6-1,75,60,50,54,48,39,86,65,31,0.00,40.00,14,7,23,0.00
2013-6-2,65,55,48,55,48,45,97,82,54,0.00,40.00,19,12,29,0.00
2013-6-3,71,59,47,55,48,36,97,71,37,0.00,40.00,20,11,29,0.00
2013-6-4,77,65,52,58,46,35,91,55,25,0.00,40.00,16,8,25,0.00
2013-6-5,81,70,58,60,49,39,68,51,28,0.00,40.00,15,8,24,0.00
2013-6-6,81,67,56,62,55,52,88,66,42,0.00,40.00,17,9,27,0.00
2013-6-7,81,66,56,57,51,46,77,60,31,0.00,40.00,15,8,25,0.00
2013-6-8,78,64,52,59,49,37,97,65,25,0.00,40.00,17,11,28,0.00
2013-6-9,72,62,53,52,45,36,80,56,31,0.00,40.00,19,14,34,0.00
2013-6-10,70,57,46,49,45,42,95,68,40,0.00,40.00,17,11,25,0.00
2013-6-11,61,51,45,47,42,39,96,74,48,0.00,40.00,13,8,20,0.00
2013-6-12,58,50,44,46,43,42,93,77,57,0.00,40.00,13,9,20,0.00
2013-6-13,61,51,44,50,45,42,94,79,58,0.00,40.00,13,6,18,0.01
2013-6-14,72,57,45,49,46,43,92,69,42,0.00,40.00,15,8,22,0.01
2013-6-15,76,62,51,54,49,45,86,65,38,0.00,40.00,14,8,25,0.00
2013-6-16,74,61,50,52,48,43,87,65,42,0.00,40.00,15,8,24,0.00
2013-6-17,74,59,51,51,48,45,86,68,39,0.00,40.00,16,7,23,0.00
2013-6-18,64,54,48,52,47,43,96,78,50,0.00,40.00,11,6,19,0.20
2013-6-19,57,51,47,51,46,42,97,84,65,0.00,40.00,11,6,23,0.29
2013-6-20,61,52,47,51,47,45,96,83,55,0.00,40.00,10,3,12,0.06
2013-6-21,69,67,63,50,46,40,60,47,35,0.00,40.00,9,8,17,0.00
2013-6-22,80,69,52,51,45,37,82,45,21,0.00,40.00,12,6,21,0.00
2013-6-23,70,63,57,57,51,42,79,65,50,0.00,40.00,14,5,24,0.03
2013-6-24,61,55,49,54,51,47,95,87,70,0.00,40.00,10,6,17,0.17
2013-6-25,65,58,55,58,55,53,96,89,73,0.00,40.00,12,6,16,0.25
2013-6-26,70,61,55,59,55,52,96,79,65,0.00,40.00,14,4,21,0.17
2013-6-27,84,69,59,62,58,52,90,70,42,0.00,40.00,17,8,24,0.01
2013-6-28,85,72,59,64,57,51,95,63,34,0.00,40.00,15,9,23,0.00
2013-6-29,87,73,60,59,54,49,72,53,32,0.00,40.00,15,7,21,0.00
2013-6-30,88,76,67,62,58,52,74,55,38,0.00,40.00,16,7,24,0.00
2013-7-1,89,76,62,65,60,56,83,61,42,0.00,40.00,13,7,20,0.00
2013-7-2,91,75,62,67,62,59,89,67,37,0.00,40.00,17,8,24,0.00
2013-7-3,84,73,61,60,53,42,78,53,25,0.00,40.00,14,10,27,0.00
2013-7-4,75,64,53,52,46,41,80,56,30,0.00,40.00,16,12,32,0.00
2013-7-5,72,61,50,52,47,41,92,63,37,0.00,40.00,18,13,31,0.00
2013-7-6,76,61,50,55,51,48,97,73,40,0.00,40.00,16,11,26,0.00
2013-7-7,78,64,53,58,54,48,97,73,38,0.00,40.00,15,9,26,0.00
2013-7-8,82,63,52,57,49,-100,96,69,33,0.00,40.00,14,9,26,0.00
2013-7-9,86,73,59,59,52,45,74,50,25,0.00,40.00,14,6,22,0.00
2013-7-10,84,70,60,58,50,-100,74,53,31,0.00,40.00,16,10,25,0.00
2013-7-11,74,60,48,51,46,41,91,64,31,0.00,40.00,15,12,27,0.00
2013-7-12,74,61,50,50,47,42,89,64,34,0.00,40.00,17,10,23,0.00
2013-7-13,79,64,49,51,44,37,82,54,28,0.00,40.00,17,10,27,0.00
2013-7-14,84,70,57,53,45,37,68,43,26,0.00,40.00,15,8,26,0.00
2013-7-15,85,69,58,50,46,42,64,46,26,0.00,40.00,17,9,24,0.00
2013-7-16,82,70,54,53,51,49,88,55,33,0.00,40.00,19,10,26,0.00
2013-7-17,80,64,52,55,52,49,95,71,35,0.00,40.00,15,8,22,0.00
2013-7-18,83,69,53,58,52,46,93,60,28,0.00,40.00,15,9,27,0.00
2013-7-19,82,68,55,57,52,47,88,62,30,0.00,40.00,17,10,30,0.00
2013-7-20,82,65,52,58,51,-100,96,66,34,0.00,40.00,18,11,28,0.00
2013-7-21,85,71,56,57,52,46,92,56,27,0.00,40.00,15,10,29,0.00
2013-7-22,87,73,60,61,52,42,86,52,23,0.00,40.00,18,9,29,0.00
2013-7-23,89,75,63,54,49,43,57,41,22,0.00,40.00,13,6,21,0.00
2013-7-24,92,77,65,57,51,36,65,44,17,0.00,40.00,12,6,21,0.00
2013-7-25,91,77,65,54,48,37,63,38,19,0.00,40.00,16,8,27,0.00
2013-7-26,87,75,61,53,47,38,63,40,18,0.00,40.00,16,10,27,0.00
2013-7-27,79,68,56,51,43,34,58,43,20,0.00,40.00,18,12,27,0.00
2013-7-28,78,63,50,52,45,39,82,56,25,0.00,40.00,16,11,26,0.00
2013-7-29,78,61,49,54,51,46,96,73,34,0.00,40.00,16,10,21,0.00
2013-7-30,77,61,48,55,50,46,97,72,33,0.00,40.00,14,9,20,0.00
2013-7-31,69,57,51,56,53,50,97,87,63,0.00,40.00,14,8,24,0.00
2013-8-1,62,56,52,57,53,50,97,90,74,0.00,40.00,10,6,16,0.03
2013-8-2,76,62,52,53,51,49,94,70,41,0.00,40.00,16,9,27,0.01
2013-8-3,80,66,53,58,52,48,92,63,35,0.00,40.00,15,9,26,0.00
2013-8-4,87,72,58,58,53,45,88,54,26,0.00,40.00,15,6,22,0.00
2013-8-5,89,74,62,59,54,47,75,54,24,0.00,40.00,15,8,21,0.00
2013-8-6,89,75,64,59,52,43,72,48,22,0.00,40.00,16,7,27,0.00
2013-8-7,68,60,55,54,49,43,85,67,40,0.00,40.00,14,8,30,0.00
2013-8-8,77,60,50,56,52,49,97,78,47,0.00,40.00,15,7,25,0.00
2013-8-9,81,68,59,61,58,54,90,71,46,0.00,40.00,11,6,23,0.01
2013-8-10,77,64,58,61,57,51,96,78,55,0.00,40.00,10,4,25,0.03
2013-8-11,78,64,55,58,55,52,97,76,41,0.00,40.00,15,7,22,0.03
2013-8-12,77,60,51,57,52,48,97,78,41,0.00,40.00,15,8,20,0.00
2013-8-13,85,67,55,57,50,-100,93,61,30,0.00,40.00,12,7,20,0.00
2013-8-14,85,71,62,55,50,40,73,51,22,0.00,40.00,15,8,27,0.00
2013-8-15,81,66,59,61,48,-100,86,62,41,0.00,40.00,16,9,24,0.00
2013-8-16,83,67,61,62,54,-100,95,72,34,0.00,40.00,15,8,23,0.00
2013-8-17,82,67,57,59,51,-100,82,61,40,0.00,40.00,15,9,24,0.00
2013-8-18,82,67,55,59,55,50,97,71,34,0.00,40.00,15,9,28,0.00
2013-8-19,84,69,59,58,50,-100,89,60,30,0.00,40.00,16,9,26,0.00
2013-8-20,81,67,53,57,49,39,93,59,26,0.00,40.00,20,12,30,0.00
2013-8-21,83,69,57,52,48,39,75,49,33,0.00,40.00,15,7,23,0.00
2013-8-22,80,70,62,61,53,46,92,58,38,0.00,40.00,11,6,21,0.00
2013-8-23,74,62,54,58,55,52,97,79,49,0.00,40.00,16,8,23,0.00
2013-8-24,74,61,54,56,51,-100,95,75,52,0.00,40.00,12,6,17,0.00
2013-8-25,63,58,54,60,56,50,96,90,75,0.00,40.00,12,5,17,0.35
2013-8-26,79,66,56,58,52,45,96,67,30,0.00,40.00,11,6,23,0.01
2013-8-27,75,63,56,54,51,48,85,67,44,0.00,40.00,8,4,11,0.00
2013-8-28,78,72,62,59,56,49,82,58,36,0.00,40.00,13,8,21,0.00
2013-8-29,78,68,61,63,57,53,90,69,44,0.00,40.00,16,7,34,0.00
2013-8-30,79,69,60,61,57,52,87,67,40,0.00,40.00,15,7,21,0.00
2013-8-31,85,69,58,59,55,-100,90,65,36,0.00,40.00,17,8,24,0.00
2013-9-1,84,68,57,56,52,47,84,61,28,0.00,40.00,15,7,24,0.00
2013-9-2,76,66,61,59,54,49,80,66,42,0.00,40.00,13,6,22,0.00
2013-9-3,78,65,57,55,51,45,83,64,33,0.00,40.00,14,8,23,0.00
2013-9-4,73,63,56,56,53,51,87,71,52,0.00,40.00,14,6,19,0.00
2013-9-5,60,57,55,56,53,51,94,87,79,0.00,40.00,10,5,21,0.37
2013-9-6,72,61,53,58,53,49,96,77,44,0.00,40.00,13,7,19,0.03
2013-9-7,78,62,53,59,53,-100,97,76,45,0.00,40.00,15,7,24,0.01
2013-9-8,80,68,58,59,56,52,81,65,44,0.00,40.00,18,8,31,0.00
2013-9-9,84,72,60,62,56,52,85,59,37,0.00,40.00,19,8,29,0.00
2013-9-10,91,76,62,60,57,52,82,55,27,0.00,40.00,12,6,19,0.00
2013-9-11,88,75,57,62,57,52,87,57,32,0.00,40.00,17,8,25,0.00
2013-9-12,83,66,54,57,55,52,97,71,40,0.00,40.00,15,7,21,0.00
2013-9-13,82,67,53,61,57,52,97,71,45,0.00,40.00,17,8,25,0.00
2013-9-14,79,66,57,61,57,-100,96,76,51,0.00,40.00,17,7,26,0.00
2013-9-15,61,57,54,57,54,50,97,88,72,0.00,40.00,11,8,15,0.00
2013-9-16,69,60,53,54,50,47,94,72,46,0.00,40.00,13,6,24,0.00
2013-9-17,60,55,50,55,52,47,97,89,71,0.00,40.00,22,7,42,0.81
2013-9-18,61,54,50,50,48,45,94,81,58,0.00,40.00,9,4,14,0.81
2013-9-19,78,63,50,50,47,40,86,60,27,0.00,40.00,14,7,19,0.00
2013-9-20,71,58,53,54,49,44,95,74,45,0.00,40.00,18,6,29,0.32
2013-9-21,60,53,50,54,50,-100,97,91,65,0.00,40.00,8,4,20,0.66
2013-9-22,56,53,49,53,50,47,97,91,73,0.00,40.00,22,12,33,0.14
2013-9-23,59,54,51,54,51,49,97,89,80,0.00,40.00,12,5,16,0.02
2013-9-24,55,51,44,52,49,41,97,93,81,0.00,40.00,10,5,20,0.70
2013-9-25,53,46,43,47,44,41,97,92,73,0.00,40.00,8,4,17,0.48
2013-9-26,60,50,44,49,45,40,97,84,52,0.00,40.00,9,4,16,0.01
2013-9-27,58,50,42,51,45,41,97,84,58,0.00,40.00,18,9,25,0.04
2013-9-28,65,56,51,54,49,-100,97,80,58,0.00,40.00,28,18,47,0.68
2013-9-29,55,51,48,54,49,46,97,91,79,0.00,40.00,24,14,48,1.51
2013-9-30,56,50,45,51,45,41,97,83,72,0.00,40.00,24,9,48,1.03
2013-10-1,54,49,46,43,41,39,81,73,67,0.00,40.00,7,4,13,0.30
2013-10-2,53,44,38,45,41,37,97,89,67,0.00,40.00,7,4,14,0.35
2013-10-3,56,46,41,46,42,40,97,87,63,0.00,40.00,13,5,18,0.07
2013-10-4,58,48,39,48,43,38,97,84,57,0.00,40.00,12,4,15,0.00
2013-10-5,74,57,45,53,45,37,89,65,42,0.00,40.00,8,4,15,0.00
2013-10-6,74,62,51,47,38,28,68,45,19,0.00,40.00,15,9,22,0.00
2013-10-7,61,51,46,49,44,33,96,77,35,0.00,40.00,11,6,18,0.08
2013-10-8,51,46,43,47,44,39,97,91,76,0.00,40.00,14,6,21,0.08
2013-10-9,53,44,39,45,42,38,98,91,74,0.00,40.00,15,10,23,0.04
2013-10-10,59,50,43,47,43,40,96,78,53,0.00,40.00,15,6,19,0.01
2013-10-11,54,48,44,47,44,41,96,85,68,0.00,40.00,10,5,14,0.00
2013-10-12,56,48,43,45,41,-100,96,81,60,0.00,40.00,10,5,17,0.00
2013-10-13,54,46,40,45,42,39,97,88,71,0.00,40.00,12,5,20,0.00
2013-10-14,56,47,40,47,43,39,97,88,72,0.00,40.00,8,3,12,0.00
2013-10-15,59,50,42,46,43,33,97,77,61,0.00,40.00,13,5,19,0.00
2013-10-16,65,54,45,45,42,38,85,66,46,0.00,40.00,13,6,18,0.00
2013-10-17,64,55,48,51,45,40,85,71,60,0.00,40.00,12,5,16,0.00
2013-10-18,65,55,48,53,48,41,90,77,59,0.00,40.00,14,6,20,0.00
2013-10-19,68,58,50,53,46,-100,87,67,52,0.00,40.00,14,7,18,0.00
2013-10-20,64,57,50,52,49,44,85,75,62,0.00,40.00,12,5,17,0.00
2013-10-21,69,58,48,54,49,41,83,72,57,0.00,40.00,11,5,17,0.00
2013-10-22,71,62,55,55,48,41,73,61,50,0.00,40.00,11,6,19,0.00
2013-10-23,70,60,53,55,49,42,82,66,54,0.00,40.00,14,7,20,0.00
2013-10-24,70,58,51,57,49,42,86,72,53,0.00,40.00,13,7,21,0.00
2013-10-25,56,50,44,51,47,42,97,87,78,0.00,40.00,11,5,14,0.00
2013-10-26,53,47,44,48,44,-100,97,94,79,0.00,40.00,13,5,17,0.00
2013-10-27,47,44,42,46,43,41,97,97,93,0.00,40.00,15,7,27,0.10
2013-10-28,52,44,40,44,38,-100,97,85,59,0.00,40.00,15,8,24,0.03
2013-10-29,57,46,36,42,35,29,85,68,48,0.00,40.00,12,4,18,0.00
2013-10-30,59,48,41,45,40,36,86,73,52,0.00,40.00,8,4,14,0.00
2013-10-31,60,52,46,49,44,40,96,77,56,0.00,40.00,13,7,21,0.00
2013-11-1,63,53,48,54,50,47,97,91,72,0.00,40.00,11,4,16,0.00
2013-11-2,53,46,40,50,42,-100,97,88,76,0.00,40.00,17,9,30,0.48
2013-11-3,46,41,38,42,39,36,97,93,82,0.00,40.00,7,3,18,0.18
2013-11-4,47,42,38,42,39,37,97,89,75,0.00,40.00,14,9,20,0.04
2013-11-5,50,47,43,49,45,39,97,95,82,0.00,40.00,18,11,24,0.31
2013-11-6,60,54,49,56,52,48,97,95,82,0.00,40.00,8,6,15,0.10
2013-11-7,53,47,42,52,46,41,97,97,93,0.00,40.00,15,8,27,0.42
2013-11-8,46,42,38,43,40,37,98,95,87,0.00,40.00,8,4,12,0.01
2013-11-9,57,46,37,45,39,-100,97,79,58,0.00,40.00,15,7,21,0.00
2013-11-10,61,53,46,51,46,42,91,79,62,0.00,40.00,15,6,21,0.00
2013-11-11,54,49,43,48,45,40,96,85,71,0.00,40.00,13,6,21,0.00
2013-11-12,56,52,49,54,49,41,97,89,60,0.00,40.00,14,7,19,0.05
2013-11-13,50,47,44,49,46,43,97,97,96,0.00,40.00,10,5,14,0.01
2013-11-14,46,43,41,45,42,39,98,96,87,0.00,40.00,7,4,12,0.02
2013-11-15,45,41,39,44,39,37,98,92,81,0.00,40.00,11,4,18,0.02
2013-11-16,46,42,39,44,39,-100,97,91,77,0.00,40.00,12,7,19,0.15
2013-11-17,49,44,40,41,39,37,96,85,71,0.00,40.00,13,8,18,0.01
2013-11-18,49,44,40,45,40,36,90,85,77,0.00,40.00,25,15,34,0.13
2013-11-19,51,48,41,50,47,40,97,95,89,0.00,40.00,20,11,28,1.37
2013-11-20,41,33,30,40,33,29,99,99,97,0.00,40.00,16,12,24,0.44
2013-11-21,39,32,28,37,30,25,99,92,68,0.00,40.00,11,5,18,0.01
2013-11-22,37,32,26,32,28,25,95,84,72,0.00,40.00,10,4,21,0.01
2013-11-23,46,36,29,36,29,-100,94,78,66,0.00,40.00,12,5,18,0.00
2013-11-24,58,44,36,35,28,25,90,57,33,0.00,40.00,17,11,23,0.00
2013-11-25,50,41,39,36,30,27,66,63,57,0.00,40.00,14,10,18,0.00
2013-11-26,51,47,40,38,37,31,77,67,60,0.00,40.00,14,5,19,0.00
2013-11-27,53,46,40,45,39,32,89,79,55,0.00,40.00,13,8,18,0.00
2013-11-28,55,44,39,43,38,32,93,79,60,0.00,40.00,13,6,18,0.00
2013-11-29,50,43,39,41,37,34,96,80,69,0.00,40.00,14,7,18,0.00
2013-11-30,53,44,39,44,39,-100,97,88,68,0.00,40.00,12,6,15,0.00
2013-12-1,53,50,46,49,46,39,91,84,75,0.00,40.00,18,9,26,0.00
2013-12-2,50,41,32,48,40,31,98,95,84,0.00,40.00,21,10,32,0.57
2013-12-3,36,32,26,35,32,25,99,98,94,0.00,40.00,14,5,20,0.02
2013-12-4,32,26,22,27,24,21,98,89,73,0.00,40.00,9,4,13,0.01
2013-12-5,33,26,21,26,22,19,96,86,75,0.00,40.00,10,4,14,0.00
2013-12-6,33,28,21,32,26,20,98,92,69,0.00,40.00,22,12,29,0.00
2013-12-7,23,19,15,21,16,-100,95,92,91,0.00,40.00,9,3,18,0.00
2013-12-8,28,20,14,27,18,12,94,93,89,0.00,40.00,4,1,6,0.00
2013-12-9,32,23,16,31,22,14,97,94,91,0.00,40.00,7,3,11,0.01
2013-12-10,34,30,24,31,29,23,98,95,90,0.00,40.00,15,9,19,0.01
2013-12-11,41,36,30,34,32,29,98,87,74,0.00,40.00,14,10,21,0.28
2013-12-12,39,39,39,35,35,35,84,84,84,0.00,40.00,14,14,20,0.00
2013-12-13,50,48,44,43,41,39,85,77,72,0.00,40.00,6,3,7,0.04
2013-12-14,47,30,36,39,2,-100,94,62,73,0.00,40.00,14,9,20,0.00
2013-12-15,49,43,38,39,36,30,89,77,63,0.00,40.00,13,7,19,0.00
2013-12-16,42,35,32,37,33,30,98,93,83,0.00,40.00,12,7,20,0.00
2013-12-17,48,40,35,33,32,31,91,77,56,0.00,40.00,18,13,25,0.00
2013-12-18,41,37,35,36,35,31,98,94,75,0.00,40.00,12,7,17,0.02
2013-12-19,35,31,29,34,30,29,99,98,97,0.00,40.00,16,7,30,0.03
2013-12-20,43,35,30,42,33,28,98,93,72,0.00,40.00,17,9,29,0.07
2013-12-21,48,44,42,46,42,-100,97,94,87,0.00,40.00,11,4,18,0.11
2013-12-22,55,46,42,48,43,40,97,89,73,0.00,40.00,13,9,20,0.01
2013-12-23,48,46,43,46,43,39,97,91,81,0.00,40.00,13,7,17,0.05
2013-12-24,44,40,36,43,39,35,98,98,97,0.00,40.00,9,5,11,0.02
2013-12-25,46,38,32,43,37,32,99,95,83,0.00,40.00,15,8,19,0.01
2013-12-26,50,42,37,41,34,29,83,73,58,0.00,40.00,19,13,26,0.01
2013-12-27,49,46,41,46,38,34,89,74,59,0.00,40.00,16,8,22,0.00
2013-12-28,38,33,32,37,32,-100,99,97,95,0.00,40.00,8,2,10,0.00
2013-12-29,36,32,30,35,32,29,99,98,97,0.00,40.00,9,3,14,0.00
2013-12-30,50,40,32,41,35,32,99,82,54,0.00,40.00,15,9,20,0.01
2013-12-31,53,46,41,42,36,27,79,68,43,0.00,40.00,14,6,19,0.00
2014-1-1,48,42,36,41,35,30,92,76,57,0.00,40.00,15,6,20,0.00
2014-1-2,54,46,41,41,38,35,92,72,57,0.00,40.00,16,11,25,0.00